Idahome, Idaho
Current Conditions -  °F | °C
As of 5:53 PM on Friday 24 Oct 2014 (Local Time) from KBYI Reporting Station
Clear Clear  
Wind Chill: 71°   Ceiling: Unl
Heat Index: 71°   Visibility: 10mi
Dew Point: 34°   Wind: 5mph
Humidity: 26%   Direction: 20°NNE
Pressure: 30.01"   Gusts: NA
Location:  42.5399°N, 113.621°W
Report Text: KBYI 242353Z AUTO 02004KT 10SM CLR 22/01 A3001 RMK AO2 SLP135 T02170011 10244 20178 56010
Loading
Personal Weather Stations






























Interactive Weather Map
Tropical Storm Tracking
New forecast layout! Learn more

10-Day Weather Forecast

Advertisements
Track Severe Weather on mobile